Time;durP1;ratioP1;P1;durP2;ratioP2;P2;SDS_P1;SDS_P2;PMS_P1;PMS_P2;Temp;Humidity;BMP_temperature;BMP_pressure;BME280_temperature;BME280_humidity;BME280_pressure;Samples;Min_cycle;Max_cycle;Signal;HPM_P1;HPM_P2
2022/04/18 00:02:13;;;;;;;106.18;45.95;;;1.80;99.90;;;;;;5030027;28;20046;-52
2022/04/18 00:04:38;;;;;;;106.43;42.47;;;1.90;99.90;;;;;;5029847;28;20029;-51
2022/04/18 00:07:04;;;;;;;108.72;46.85;;;1.70;99.90;;;;;;5029829;28;20022;-52
2022/04/18 00:09:33;;;;;;;109.53;45.50;;;1.90;99.90;;;;;;5029786;28;20030;-52
2022/04/18 00:11:59;;;;;;;95.38;43.90;;;1.80;99.90;;;;;;5029791;28;20030;-51
2022/04/18 00:14:25;;;;;;;108.13;46.45;;;1.70;99.90;;;;;;5029445;28;20483;-51
2022/04/18 00:16:51;;;;;;;101.20;42.60;;;1.70;99.90;;;;;;5009914;28;20108;-52
2022/04/18 00:19:16;;;;;;;107.68;45.13;;;1.60;99.90;;;;;;5010023;28;20436;-53
2022/04/18 00:21:42;;;;;;;99.70;46.58;;;1.50;99.90;;;;;;5009706;28;20033;-51
2022/04/18 00:24:11;;;;;;;115.38;46.85;;;1.40;99.90;;;;;;5009912;28;20026;-51
2022/04/18 00:26:39;;;;;;;121.80;48.25;;;1.50;99.90;;;;;;5009852;28;20026;-51
2022/04/18 00:29:06;;;;;;;113.75;48.05;;;1.50;99.90;;;;;;5009713;28;20053;-52
2022/04/18 00:31:32;;;;;;;108.95;46.70;;;1.50;99.90;;;;;;5009821;28;20496;-50
2022/04/18 00:33:57;;;;;;;104.80;44.45;;;1.40;99.90;;;;;;5009311;28;20045;-52
2022/04/18 00:36:23;;;;;;;107.40;45.95;;;1.50;99.90;;;;;;5009482;28;20026;-52
2022/04/18 00:38:49;;;;;;;115.03;46.63;;;1.40;99.90;;;;;;5009190;28;20116;-52
2022/04/18 00:41:14;;;;;;;130.10;51.08;;;1.40;99.90;;;;;;5009692;28;20046;-53
2022/04/18 00:43:43;;;;;;;118.93;53.08;;;1.40;99.90;;;;;;5009568;28;20477;-53
2022/04/18 00:46:09;;;;;;;125.57;53.17;;;1.40;99.90;;;;;;5009557;28;20026;-52
2022/04/18 00:48:35;;;;;;;129.50;50.30;;;1.30;99.90;;;;;;5009233;28;20026;-51
2022/04/18 00:51:04;;;;;;;108.28;47.55;;;1.30;99.90;;;;;;5008957;28;20940;-51
2022/04/18 00:53:31;;;;;;;134.82;56.35;;;1.30;99.90;;;;;;5009322;28;20061;-52
2022/04/18 00:55:57;;;;;;;118.65;53.13;;;1.10;99.90;;;;;;5016316;28;20461;-52
2022/04/18 00:58:23;;;;;;;167.17;62.17;;;1.00;99.90;;;;;;5028949;28;20095;-52
2022/04/18 01:00:49;;;;;;;155.43;61.57;;;1.20;99.90;;;;;;5028985;28;20041;-52
2022/04/18 01:03:15;;;;;;;165.27;61.97;;;1.20;99.90;;;;;;5028425;28;20563;-52
2022/04/18 01:05:41;;;;;;;157.10;66.05;;;1.20;99.90;;;;;;5028630;28;20033;-53
2022/04/18 01:08:07;;;;;;;167.33;66.90;;;1.10;99.90;;;;;;5029210;28;20079;-53
2022/04/18 01:10:33;;;;;;;164.10;66.95;;;1.10;99.90;;;;;;5028678;28;20022;-52
2022/04/18 01:12:59;;;;;;;162.80;67.70;;;1.10;99.90;;;;;;5028448;28;20029;-53
2022/04/18 01:15:24;;;;;;;167.55;65.85;;;1.10;99.90;;;;;;5020226;28;20034;-52
2022/04/18 01:17:50;;;;;;;159.07;64.72;;;1.00;99.90;;;;;;5008640;28;20034;-52
2022/04/18 01:20:16;;;;;;;158.82;67.40;;;1.10;99.90;;;;;;5008787;28;20084;-52
2022/04/18 01:22:44;;;;;;;157.00;62.17;;;1.20;99.90;;;;;;5008730;28;20029;-51
2022/04/18 01:30:38;;;;;;;165.15;73.05;;;1.10;99.90;;;;;;5008467;28;20057;-51
2022/04/18 01:33:04;;;;;;;162.43;66.30;;;1.10;99.90;;;;;;5008801;28;20462;-51
2022/04/18 01:35:30;;;;;;;170.27;73.57;;;1.20;99.90;;;;;;5008620;28;20044;-51
2022/04/18 01:37:55;;;;;;;157.82;73.03;;;1.00;99.90;;;;;;5007969;28;20030;-52
2022/04/18 01:40:21;;;;;;;169.95;74.22;;;0.90;99.90;;;;;;5008641;28;20040;-51
2022/04/18 01:42:47;;;;;;;161.80;71.18;;;1.00;99.90;;;;;;5008554;28;20062;-52
2022/04/18 01:45:12;;;;;;;156.27;67.45;;;0.90;99.90;;;;;;5008603;28;20057;-52
2022/04/18 01:47:38;;;;;;;160.73;73.07;;;0.80;99.90;;;;;;5008582;28;20410;-53
2022/04/18 01:50:06;;;;;;;161.68;70.53;;;0.80;99.90;;;;;;5008581;28;20465;-53
2022/04/18 01:52:31;;;;;;;171.70;75.43;;;0.70;99.90;;;;;;5008606;28;20025;-52
2022/04/18 01:54:57;;;;;;;157.95;74.68;;;0.70;99.90;;;;;;5008813;28;20040;-52
2022/04/18 01:57:23;;;;;;;166.45;72.68;;;0.80;99.90;;;;;;5023271;28;20025;-51
2022/04/18 01:59:48;;;;;;;156.30;66.65;;;0.80;99.90;;;;;;5027726;28;20029;-53
2022/04/18 02:02:14;;;;;;;150.82;66.60;;;0.90;99.90;;;;;;5030537;28;20461;-52
2022/04/18 02:04:39;;;;;;;143.43;63.50;;;0.80;99.90;;;;;;5031954;28;20535;-52
2022/04/18 02:07:05;;;;;;;132.70;57.33;;;0.80;99.90;;;;;;5032194;28;20026;-53
2022/04/18 02:09:31;;;;;;;130.90;59.83;;;0.60;99.90;;;;;;5011990;28;20032;-51
2022/04/18 02:11:57;;;;;;;128.55;57.95;;;0.70;99.90;;;;;;5014112;28;20028;-50
2022/04/18 02:14:23;;;;;;;143.05;60.35;;;0.60;99.90;;;;;;5012404;28;20037;-51
2022/04/18 02:16:48;;;;;;;128.10;56.72;;;0.70;99.90;;;;;;5002615;28;20026;-51
2022/04/18 02:19:14;;;;;;;132.88;60.10;;;0.80;99.90;;;;;;5012111;28;20438;-51
2022/04/18 02:21:39;;;;;;;138.52;60.40;;;0.80;99.90;;;;;;5012394;28;20026;-51
2022/04/18 02:24:05;;;;;;;129.68;59.10;;;0.60;99.90;;;;;;5012208;28;20229;-50
2022/04/18 02:26:31;;;;;;;133.93;58.58;;;0.60;99.90;;;;;;5012138;28;20026;-53
2022/04/18 02:28:56;;;;;;;118.28;54.83;;;0.40;99.90;;;;;;5011825;28;20014;-52
2022/04/18 02:31:22;;;;;;;130.43;57.60;;;0.50;99.90;;;;;;5012326;28;20030;-53
2022/04/18 02:33:48;;;;;;;118.63;52.33;;;0.50;99.90;;;;;;5015025;28;20021;-53
2022/04/18 02:36:13;;;;;;;99.10;46.05;;;0.50;99.90;;;;;;5032006;28;20543;-53
2022/04/18 02:38:39;;;;;;;105.55;46.33;;;0.60;99.90;;;;;;5031800;28;20504;-52
2022/04/18 02:41:05;;;;;;;98.40;45.15;;;0.50;99.90;;;;;;5031692;28;20026;-53
2022/04/18 02:43:30;;;;;;;96.47;43.53;;;0.50;99.90;;;;;;5031464;28;20033;-52
2022/04/18 02:45:56;;;;;;;94.65;44.33;;;0.50;99.90;;;;;;5018100;28;20034;-53
2022/04/18 02:48:21;;;;;;;98.57;45.92;;;0.40;99.90;;;;;;5010554;28;20033;-52
2022/04/18 02:50:47;;;;;;;96.97;45.85;;;0.40;99.90;;;;;;5012097;28;20037;-52
2022/04/18 02:53:13;;;;;;;99.53;45.20;;;0.40;99.90;;;;;;5011520;28;20025;-50
2022/04/18 02:55:39;;;;;;;106.35;45.42;;;0.40;99.90;;;;;;5011760;28;20045;-52
2022/04/18 02:58:04;;;;;;;100.93;43.47;;;0.40;99.90;;;;;;5029303;28;20513;-52
2022/04/18 03:00:30;;;;;;;93.18;41.80;;;0.40;99.90;;;;;;5031482;28;20119;-52
2022/04/18 03:02:55;;;;;;;92.93;44.13;;;0.30;99.90;;;;;;5031685;28;20056;-52
2022/04/18 03:05:21;;;;;;;93.55;43.72;;;0.20;99.90;;;;;;5023147;28;20517;-52
2022/04/18 03:07:47;;;;;;;95.70;42.67;;;0.30;99.90;;;;;;5011270;28;20026;-52
2022/04/18 03:10:12;;;;;;;90.18;43.20;;;0.30;99.90;;;;;;5011141;28;20070;-52
2022/04/18 03:12:38;;;;;;;96.32;44.40;;;0.30;99.90;;;;;;5010857;28;20044;-52
2022/04/18 03:15:04;;;;;;;100.40;46.17;;;0.10;99.90;;;;;;5011241;28;20045;-53
2022/04/18 03:17:30;;;;;;;97.83;44.03;;;0.10;99.90;;;;;;5011561;28;20030;-52
2022/04/18 03:19:56;;;;;;;101.32;45.50;;;0.10;99.90;;;;;;5010972;28;20030;-52
2022/04/18 03:22:21;;;;;;;102.57;44.67;;;0.10;99.90;;;;;;5011068;28;20030;-52
2022/04/18 03:24:48;;;;;;;107.25;45.05;;;0.20;99.90;;;;;;5011509;28;20041;-51
2022/04/18 03:27:14;;;;;;;96.80;44.55;;;0.20;99.90;;;;;;5011026;28;20448;-53
2022/04/18 03:29:40;;;;;;;101.07;43.10;;;0.20;99.90;;;;;;5010897;28;20038;-52
2022/04/18 03:32:07;;;;;;;111.60;50.30;;;0.20;99.90;;;;;;5011196;28;20083;-52
2022/04/18 03:34:34;;;;;;;116.77;50.90;;;0.20;99.90;;;;;;5010738;28;20034;-53
2022/04/18 03:39:56;;;;;;;114.57;52.42;;;0.20;99.90;;;;;;5010557;28;19913;-52
2022/04/18 03:42:32;;;;;;;126.20;53.70;;;0.00;99.90;;;;;;5010605;28;20076;-52
2022/04/18 03:45:04;;;;;;;111.97;47.85;;;0.10;99.90;;;;;;5010923;28;20029;-52
2022/04/18 03:47:30;;;;;;;114.72;53.80;;;0.10;99.90;;;;;;5010597;28;20036;-53
2022/04/18 03:49:56;;;;;;;111.18;49.78;;;0.10;99.90;;;;;;4996857;28;20030;-51
2022/04/18 03:52:23;;;;;;;112.20;51.05;;;0.00;99.90;;;;;;4996723;28;20497;-51
2022/04/18 03:54:49;;;;;;;129.00;54.25;;;0.10;99.90;;;;;;5021153;28;20058;-51
2022/04/18 03:57:15;;;;;;;133.70;59.08;;;0.00;99.90;;;;;;5015901;28;20568;-51
2022/04/18 03:59:41;;;;;;;135.98;58.95;;;0.00;99.90;;;;;;5026665;28;20029;-51
2022/04/18 04:02:08;;;;;;;116.18;53.42;;;0.00;99.90;;;;;;5029932;28;20060;-51
2022/04/18 04:04:34;;;;;;;119.78;54.35;;;0.00;99.90;;;;;;5018994;28;20033;-53
2022/04/18 04:06:59;;;;;;;127.30;55.63;;;0.00;99.90;;;;;;5010673;28;20435;-53
2022/04/18 04:09:25;;;;;;;123.70;55.13;;;-0.10;99.90;;;;;;5010294;28;20040;-52
2022/04/18 04:11:51;;;;;;;119.35;52.85;;;-0.10;99.90;;;;;;5010078;28;20064;-51
2022/04/18 04:14:18;;;;;;;126.85;56.97;;;-0.20;99.90;;;;;;5009861;28;20042;-51
2022/04/18 04:16:44;;;;;;;129.07;58.50;;;-0.10;99.90;;;;;;5011292;28;20025;-51
2022/04/18 04:19:09;;;;;;;133.07;61.33;;;0.00;99.90;;;;;;5009611;28;20449;-52
2022/04/18 04:21:35;;;;;;;131.05;60.83;;;0.00;99.90;;;;;;5010442;28;20061;-52
2022/04/18 04:24:02;;;;;;;128.23;58.78;;;0.00;99.90;;;;;;5009507;28;20026;-52
2022/04/18 04:26:28;;;;;;;128.25;60.38;;;0.00;99.90;;;;;;5008790;28;20026;-52
2022/04/18 04:28:54;;;;;;;132.40;61.75;;;0.00;99.90;;;;;;4998043;28;20034;-51
2022/04/18 04:31:20;;;;;;;143.45;63.72;;;0.00;99.90;;;;;;4989987;28;20034;-52
2022/04/18 04:33:45;;;;;;;148.63;66.38;;;0.00;99.90;;;;;;4990081;28;20042;-51
2022/04/18 04:36:15;;;;;;;137.70;61.15;;;0.00;99.90;;;;;;4988990;28;20581;-53
2022/04/18 04:38:41;;;;;;;145.75;61.97;;;0.00;99.90;;;;;;4989545;28;20038;-53
2022/04/18 04:41:07;;;;;;;134.95;62.28;;;-0.10;99.90;;;;;;4990456;28;20092;-52
2022/04/18 04:43:33;;;;;;;126.97;60.10;;;0.00;99.90;;;;;;4989539;28;20022;-52
2022/04/18 04:46:02;;;;;;;123.63;57.95;;;0.00;99.90;;;;;;5024998;28;20025;-53
2022/04/18 04:48:28;;;;;;;135.32;63.13;;;0.10;99.90;;;;;;5026367;28;20087;-53
2022/04/18 04:50:54;;;;;;;136.82;63.50;;;0.20;99.90;;;;;;5027548;28;20025;-51
2022/04/18 04:53:20;;;;;;;132.43;60.42;;;0.20;99.90;;;;;;5027685;28;20036;-52
2022/04/18 04:55:45;;;;;;;128.32;62.03;;;0.30;99.90;;;;;;5027321;28;20723;-53
2022/04/18 04:58:11;;;;;;;126.03;61.40;;;0.30;99.90;;;;;;5027442;28;20106;-52
2022/04/18 05:00:38;;;;;;;115.10;53.80;;;0.30;99.90;;;;;;5027463;28;20159;-53
2022/04/18 05:03:05;;;;;;;115.80;57.33;;;0.30;99.90;;;;;;5027573;28;20049;-51
2022/04/18 05:05:32;;;;;;;129.07;59.00;;;0.30;99.90;;;;;;5015553;28;20623;-52
2022/04/18 05:07:58;;;;;;;112.32;56.10;;;0.40;99.90;;;;;;5005711;28;20037;-53
2022/04/18 05:10:24;;;;;;;106.40;51.78;;;0.40;99.90;;;;;;5005881;28;20030;-53
2022/04/18 05:12:50;;;;;;;106.68;53.00;;;0.50;99.90;;;;;;5005967;28;20026;-51
2022/04/18 05:15:16;;;;;;;127.57;63.83;;;0.50;99.90;;;;;;5006008;28;20030;-54
2022/04/18 05:17:41;;;;;;;142.27;67.18;;;0.50;99.90;;;;;;5005966;28;20024;-51
2022/04/18 05:20:08;;;;;;;142.02;67.07;;;0.70;99.90;;;;;;5009054;28;20038;-52
2022/04/18 05:22:33;;;;;;;137.00;67.03;;;0.80;99.90;;;;;;5008816;28;20033;-53
2022/04/18 05:24:59;;;;;;;144.38;68.28;;;0.90;99.90;;;;;;5009332;28;20272;-52
2022/04/18 05:27:25;;;;;;;131.43;64.03;;;0.80;99.90;;;;;;5009235;28;20029;-50
2022/04/18 05:29:51;;;;;;;108.20;52.63;;;0.90;99.90;;;;;;5006952;28;20101;-53
2022/04/18 05:32:17;;;;;;;106.22;51.45;;;1.00;99.90;;;;;;5008730;28;20119;-51
2022/04/18 05:34:43;;;;;;;95.68;49.15;;;1.00;99.90;;;;;;5008770;28;20046;-53
2022/04/18 05:37:09;;;;;;;114.83;58.57;;;1.10;99.90;;;;;;5009087;28;20578;-51
2022/04/18 05:39:35;;;;;;;111.25;55.85;;;1.10;99.90;;;;;;5008618;28;20105;-51
2022/04/18 05:42:01;;;;;;;121.55;60.08;;;1.20;99.90;;;;;;5009159;28;20029;-53
2022/04/18 05:44:27;;;;;;;110.75;58.22;;;1.20;99.90;;;;;;5008673;28;20022;-51
2022/04/18 05:46:53;;;;;;;115.43;59.30;;;1.30;99.90;;;;;;5008875;28;20022;-51
2022/04/18 05:49:18;;;;;;;125.45;57.75;;;1.40;99.90;;;;;;5008768;28;20068;-51
2022/04/18 05:51:44;;;;;;;123.63;59.85;;;1.50;99.90;;;;;;5007504;28;20030;-51
2022/04/18 05:54:10;;;;;;;116.50;57.50;;;1.40;99.90;;;;;;5008509;28;20038;-52
2022/04/18 05:56:36;;;;;;;105.95;55.20;;;1.50;99.90;;;;;;5008746;28;20334;-52
2022/04/18 05:59:01;;;;;;;121.05;58.15;;;1.50;99.90;;;;;;5013414;28;20029;-52
2022/04/18 06:01:30;;;;;;;97.25;50.35;;;1.60;99.90;;;;;;5028043;28;20474;-52
2022/04/18 06:03:56;;;;;;;99.95;51.45;;;1.60;99.90;;;;;;5028012;28;20568;-52
2022/04/18 06:06:22;;;;;;;100.63;49.92;;;1.70;99.90;;;;;;5011523;28;20084;-52
2022/04/18 06:08:48;;;;;;;100.68;50.42;;;1.80;99.90;;;;;;5008871;28;20478;-51
2022/04/18 06:11:13;;;;;;;97.00;48.85;;;1.90;99.90;;;;;;5008546;28;20465;-52
2022/04/18 06:13:39;;;;;;;103.57;53.17;;;1.80;99.90;;;;;;5008043;28;20042;-53
2022/04/18 06:16:06;;;;;;;107.70;52.75;;;1.80;99.90;;;;;;5008868;28;20489;-51
2022/04/18 06:18:32;;;;;;;112.30;55.70;;;1.90;99.90;;;;;;5008539;28;20088;-51
2022/04/18 06:20:58;;;;;;;99.90;50.80;;;2.00;99.90;;;;;;5009018;28;20026;-51
2022/04/18 06:23:24;;;;;;;96.95;49.50;;;2.00;99.90;;;;;;5008150;28;20033;-51
2022/04/18 06:25:49;;;;;;;91.57;46.22;;;2.10;99.90;;;;;;5008607;28;20038;-53
2022/04/18 06:28:19;;;;;;;89.97;47.33;;;2.10;99.90;;;;;;5008121;28;20034;-52
2022/04/18 06:30:45;;;;;;;104.68;52.33;;;2.10;99.90;;;;;;5008659;28;20083;-51
2022/04/18 06:33:12;;;;;;;93.90;48.13;;;2.20;99.90;;;;;;5008031;28;20432;-52
2022/04/18 06:35:38;;;;;;;96.80;47.50;;;2.20;99.90;;;;;;5008288;28;20508;-52
2022/04/18 06:38:04;;;;;;;105.40;51.50;;;2.40;99.90;;;;;;5008483;28;20066;-53
2022/04/18 06:40:30;;;;;;;93.30;49.17;;;2.60;99.90;;;;;;5008289;28;20446;-52
2022/04/18 06:42:56;;;;;;;101.70;51.30;;;2.80;99.90;;;;;;5007080;28;20839;-52
2022/04/18 06:45:22;;;;;;;97.57;51.35;;;2.90;99.90;;;;;;5008405;28;20026;-51
2022/04/18 06:47:48;;;;;;;108.20;53.72;;;3.10;99.90;;;;;;5009756;28;20114;-51
2022/04/18 06:50:14;;;;;;;111.72;54.85;;;3.30;99.90;;;;;;5011934;28;20101;-52
2022/04/18 06:52:41;;;;;;;110.30;52.88;;;3.40;99.90;;;;;;5011993;28;20513;-50
2022/04/18 06:55:08;;;;;;;105.63;53.20;;;3.50;99.90;;;;;;5011997;28;20120;-53
2022/04/18 06:57:35;;;;;;;116.88;58.75;;;3.60;99.90;;;;;;5011583;28;20026;-51
2022/04/18 07:00:01;;;;;;;106.75;52.17;;;3.60;99.90;;;;;;5024659;28;20536;-52
2022/04/18 07:02:27;;;;;;;111.20;55.30;;;3.70;99.90;;;;;;5031539;28;20058;-52
2022/04/18 07:04:53;;;;;;;106.85;53.63;;;3.80;99.90;;;;;;5026246;28;20033;-52
2022/04/18 07:07:19;;;;;;;100.65;50.30;;;3.90;99.90;;;;;;5012039;28;20414;-52
2022/04/18 07:09:45;;;;;;;108.75;54.42;;;4.20;99.90;;;;;;5011536;28;20032;-52
2022/04/18 07:12:10;;;;;;;104.40;49.78;;;4.20;99.90;;;;;;5011541;28;20477;-52
2022/04/18 07:14:36;;;;;;;91.38;48.42;;;4.30;99.90;;;;;;5010694;28;20128;-52
2022/04/18 07:17:03;;;;;;;96.80;48.85;;;4.40;99.90;;;;;;5011398;28;20029;-51
2022/04/18 07:19:29;;;;;;;94.55;48.30;;;4.50;99.90;;;;;;5011711;28;20107;-52
2022/04/18 07:21:55;;;;;;;93.40;46.85;;;4.60;99.90;;;;;;5011170;28;20853;-51
2022/04/18 07:24:23;;;;;;;87.60;45.95;;;4.70;99.90;;;;;;5011395;28;20125;-51
2022/04/18 07:26:48;;;;;;;89.00;48.40;;;4.80;99.90;;;;;;5010949;28;20029;-51
2022/04/18 07:29:15;;;;;;;89.00;47.03;;;4.90;99.90;;;;;;5011260;28;20029;-51
2022/04/18 07:31:41;;;;;;;92.47;46.17;;;5.00;99.90;;;;;;5011322;28;20466;-52
2022/04/18 07:34:07;;;;;;;90.55;45.92;;;5.20;99.90;;;;;;5011084;28;20050;-51
2022/04/18 07:36:33;;;;;;;90.50;44.30;;;5.50;99.90;;;;;;5010978;28;20037;-52
2022/04/18 07:38:59;;;;;;;81.88;42.67;;;5.60;99.90;;;;;;5011030;28;20021;-51
2022/04/18 07:41:29;;;;;;;83.35;39.70;;;6.10;99.90;;;;;;5011076;28;20072;-51
2022/04/18 07:43:56;;;;;;;65.30;34.78;;;6.50;99.90;;;;;;5010809;28;20037;-50
2022/04/18 07:46:23;;;;;;;57.90;27.75;;;6.70;99.90;;;;;;5009696;28;20037;-52
2022/04/18 07:48:50;;;;;;;50.05;24.48;;;7.10;99.90;;;;;;5010861;28;20133;-52
2022/04/18 07:51:32;;;;;;;44.67;23.05;;;7.40;99.90;;;;;;5011175;28;20022;-53
2022/04/18 07:53:58;;;;;;;37.30;18.10;;;7.70;99.90;;;;;;5010846;28;20104;-53
2022/04/18 07:56:24;;;;;;;27.50;13.05;;;7.90;99.90;;;;;;5011268;28;20026;-52
2022/04/18 07:58:51;;;;;;;25.40;13.32;;;8.00;99.90;;;;;;5012932;28;20869;-52
2022/04/18 08:01:18;;;;;;;30.27;15.43;;;8.20;99.90;;;;;;5030532;28;20037;-53
2022/04/18 08:03:44;;;;;;;32.15;16.75;;;8.30;99.90;;;;;;5030141;28;20419;-51
2022/04/18 08:06:10;;;;;;;29.60;15.27;;;8.30;99.90;;;;;;5015513;28;20537;-51
2022/04/18 08:08:36;;;;;;;16.13;8.40;;;8.60;99.90;;;;;;5010701;28;20022;-52
2022/04/18 08:11:03;;;;;;;15.57;8.13;;;8.80;97.00;;;;;;5010732;28;20521;-52
2022/04/18 08:13:28;;;;;;;15.63;7.63;;;9.10;91.90;;;;;;5010522;28;20026;-51
2022/04/18 08:15:55;;;;;;;12.68;6.93;;;9.20;92.20;;;;;;5000357;28;20034;-51
2022/04/18 08:18:21;;;;;;;17.07;6.37;;;9.30;90.90;;;;;;4999139;28;20482;-52
2022/04/18 08:20:47;;;;;;;12.13;5.00;;;9.20;85.90;;;;;;4998373;28;20026;-51
2022/04/18 08:23:13;;;;;;;14.30;6.70;;;9.40;84.00;;;;;;5000206;28;20714;-52
2022/04/18 08:25:39;;;;;;;15.80;7.50;;;9.50;84.80;;;;;;4999190;28;20500;-52
2022/04/18 08:28:05;;;;;;;15.77;7.63;;;9.50;84.70;;;;;;4998509;28;20026;-51
2022/04/18 08:30:30;;;;;;;13.48;6.90;;;9.40;84.50;;;;;;5000073;28;20070;-51
2022/04/18 08:32:57;;;;;;;18.35;7.15;;;9.40;83.20;;;;;;4997753;28;20565;-52
2022/04/18 08:35:23;;;;;;;12.10;6.82;;;9.40;83.00;;;;;;4996990;28;20447;-52
2022/04/18 08:37:48;;;;;;;13.43;6.50;;;9.40;83.60;;;;;;5000420;28;20469;-51
2022/04/18 08:40:15;;;;;;;12.82;5.65;;;9.20;75.90;;;;;;4998097;28;20027;-51
2022/04/18 08:42:41;;;;;;;12.35;6.03;;;9.20;80.00;;;;;;4999257;28;20029;-50
2022/04/18 08:45:12;;;;;;;13.02;6.22;;;9.00;77.00;;;;;;5006431;28;20358;-52
2022/04/18 08:53:13;;;;;;;12.27;5.60;;;8.80;80.30;;;;;;5009862;28;20084;-51
2022/04/18 08:55:40;;;;;;;10.13;5.95;;;8.80;81.10;;;;;;5009767;28;20402;-51
2022/04/18 08:58:06;;;;;;;10.13;5.10;;;8.80;79.30;;;;;;5009609;28;20034;-51
2022/04/18 09:00:32;;;;;;;9.88;5.32;;;8.90;81.60;;;;;;5025994;28;20034;-50
2022/04/18 09:02:58;;;;;;;11.13;4.40;;;8.90;80.90;;;;;;5029124;28;20049;-51
2022/04/18 09:05:24;;;;;;;10.43;4.45;;;8.90;79.50;;;;;;5020371;28;20125;-51
2022/04/18 09:08:02;;;;;;;7.47;3.70;;;9.10;79.30;;;;;;5014472;28;20118;-50
2022/04/18 09:10:28;;;;;;;7.95;3.72;;;9.20;74.90;;;;;;5017219;28;20029;-51
2022/04/18 09:13:06;;;;;;;9.85;4.60;;;9.40;76.50;;;;;;5028784;28;20021;-50
2022/04/18 09:15:40;;;;;;;8.05;4.35;;;9.60;75.30;;;;;;4998844;28;20477;-51
2022/04/18 09:18:21;;;;;;;9.32;4.78;;;9.60;70.60;;;;;;5009193;28;20095;-50
2022/04/18 09:20:55;;;;;;;7.75;4.07;;;9.70;72.80;;;;;;5009118;28;20140;-50
2022/04/18 09:23:29;;;;;;;9.02;4.55;;;9.80;75.40;;;;;;5009099;28;20120;-50
2022/04/18 09:26:14;;;;;;;8.80;4.35;;;9.80;74.20;;;;;;5004370;28;20183;-50
2022/04/18 09:28:41;;;;;;;8.65;4.45;;;9.80;72.80;;;;;;5009132;28;20051;-52
2022/04/18 09:31:12;;;;;;;7.63;3.88;;;9.90;71.70;;;;;;5009232;28;20144;-50
2022/04/18 09:33:38;;;;;;;9.00;4.22;;;9.80;69.80;;;;;;5008912;28;20412;-51
2022/04/18 09:36:17;;;;;;;9.13;4.20;;;9.80;69.10;;;;;;5009066;28;20572;-52
2022/04/18 09:38:45;;;;;;;14.13;5.85;;;9.80;69.90;;;;;;5009001;28;20109;-52
2022/04/18 09:41:31;;;;;;;11.52;4.90;;;9.80;71.20;;;;;;5007694;28;20029;-50
2022/04/18 09:43:58;;;;;;;7.50;4.00;;;9.80;71.60;;;;;;5008352;28;20112;-51
2022/04/18 09:46:24;;;;;;;9.38;4.25;;;9.80;70.30;;;;;;5008851;28;20088;-50
2022/04/18 09:48:51;;;;;;;5.45;3.13;;;9.80;71.00;;;;;;5009025;28;20056;-51
2022/04/18 09:51:24;;;;;;;7.15;3.50;;;9.80;69.00;;;;;;5017187;28;20037;-53
2022/04/18 09:53:52;;;;;;;7.15;3.35;;;9.80;67.50;;;;;;5013140;28;20381;-51
2022/04/18 09:56:20;;;;;;;7.03;3.20;;;9.80;64.60;;;;;;5019154;28;20110;-50
2022/04/18 09:58:46;;;;;;;6.53;3.58;;;10.20;70.90;;;;;;5018077;28;20038;-50
2022/04/18 10:01:13;;;;;;;8.68;3.45;;;10.50;66.40;;;;;;5018446;28;20026;-51
2022/04/18 10:03:40;;;;;;;7.88;3.47;;;10.70;65.30;;;;;;5022239;28;20133;-51
2022/04/18 10:06:07;;;;;;;6.85;3.20;;;10.60;63.90;;;;;;5016502;28;20030;-51
2022/04/18 10:08:35;;;;;;;9.00;3.22;;;10.70;65.30;;;;;;5018294;28;20079;-51
2022/04/18 10:11:01;;;;;;;;;;;10.70;64.20;;;;;;5019062;28;20034;-52
2022/04/18 10:13:29;;;;;;;8.27;3.38;;;10.70;63.70;;;;;;5012841;28;20003;-51
2022/04/18 10:15:55;;;;;;;10.23;4.13;;;10.70;63.20;;;;;;5015257;28;20508;-51
2022/04/18 10:18:23;;;;;;;7.60;3.37;;;10.90;62.50;;;;;;5017243;28;20030;-52
2022/04/18 10:21:07;;;;;;;6.50;3.17;;;10.90;62.80;;;;;;5018807;28;20837;-52
2022/04/18 10:23:51;;;;;;;7.00;4.43;;;10.80;60.40;;;;;;5017176;28;20164;-50
2022/04/18 10:26:28;;;;;;;6.88;3.60;;;10.70;59.50;;;;;;5020610;28;20044;-51
2022/04/18 10:28:56;;;;;;;6.90;3.72;;;10.60;60.60;;;;;;5019749;28;20437;-51
2022/04/18 10:31:33;;;;;;;8.52;3.83;;;10.50;59.10;;;;;;5020891;28;20791;-52
2022/04/18 10:34:00;;;;;;;6.53;3.83;;;10.40;59.70;;;;;;5021075;28;20059;-51
2022/04/18 10:36:27;;;;;;;5.03;3.00;;;10.50;62.80;;;;;;5020542;28;20124;-51
2022/04/18 10:38:56;;;;;;;7.68;3.80;;;10.90;61.00;;;;;;5021553;28;20373;-52
2022/04/18 10:41:41;;;;;;;6.60;3.53;;;11.40;62.10;;;;;;5022769;28;20084;-51
2022/04/18 10:44:10;;;;;;;6.28;2.83;;;11.90;62.10;;;;;;5022429;28;20099;-52
2022/04/18 10:47:00;;;;;;;4.43;2.53;;;12.50;62.20;;;;;;5021426;28;20033;-51
2022/04/18 10:49:30;;;;;;;5.68;3.10;;;13.10;57.50;;;;;;5022166;28;20025;-51
2022/04/18 10:51:56;;;;;;;8.70;4.28;;;13.20;55.60;;;;;;5021964;28;20112;-51
2022/04/18 10:54:30;;;;;;;6.07;2.90;;;13.60;55.70;;;;;;5020044;28;20164;-51
2022/04/18 10:56:59;;;;;;;7.35;3.30;;;14.30;55.00;;;;;;5012410;28;20136;-51
2022/04/18 10:59:25;;;;;;;8.55;2.85;;;14.50;54.70;;;;;;5020885;28;20030;-52
2022/04/18 11:01:53;;;;;;;5.33;2.87;;;14.60;52.40;;;;;;5012261;28;20080;-52
2022/04/18 11:04:31;;;;;;;5.15;2.80;;;15.30;54.60;;;;;;5014892;28;20291;-51
2022/04/18 11:07:05;;;;;;;5.80;3.05;;;15.50;50.30;;;;;;5021262;28;20030;-51
2022/04/18 11:09:42;;;;;;;7.65;3.28;;;15.90;49.60;;;;;;5014612;28;20034;-52
2022/04/18 11:12:20;;;;;;;6.95;3.47;;;16.40;48.60;;;;;;5019342;28;20033;-51
2022/04/18 11:14:54;;;;;;;6.28;2.95;;;16.30;45.20;;;;;;5019695;28;20041;-51
2022/04/18 11:17:31;;;;;;;6.05;3.47;;;16.00;48.40;;;;;;5020238;28;20497;-50
2022/04/18 11:20:17;;;;;;;7.47;3.00;;;15.90;48.10;;;;;;5019599;28;20036;-50
2022/04/18 11:23:22;;;;;;;5.93;3.08;;;15.80;51.00;;;;;;5025646;28;20582;-52
2022/04/18 11:25:51;;;;;;;7.15;3.30;;;15.70;48.80;;;;;;5026193;28;20112;-51
2022/04/18 11:28:17;;;;;;;7.78;3.70;;;15.60;49.90;;;;;;5026260;28;20025;-50
2022/04/18 11:30:43;;;;;;;8.17;4.33;;;15.20;49.20;;;;;;5025760;28;20030;-50
2022/04/18 11:33:11;;;;;;;8.13;4.05;;;14.80;49.40;;;;;;5026554;28;20025;-51
2022/04/18 11:35:37;;;;;;;10.40;4.20;;;14.50;49.20;;;;;;5025878;28;20055;-51
2022/04/18 11:38:10;;;;;;;10.27;4.65;;;13.60;49.90;;;;;;5025749;28;20100;-52
2022/04/18 11:40:40;;;;;;;8.77;3.75;;;13.40;50.70;;;;;;5024388;28;20037;-52
2022/04/18 11:43:15;;;;;;;7.18;4.22;;;13.30;51.10;;;;;;5023571;28;20014;-51
2022/04/18 11:45:41;;;;;;;8.23;4.30;;;13.20;51.70;;;;;;5025643;28;20054;-52
2022/04/18 11:48:07;;;;;;;8.40;4.32;;;13.10;53.00;;;;;;5026111;28;20119;-52
2022/04/18 11:50:37;;;;;;;8.00;3.90;;;13.10;52.10;;;;;;5025010;28;20022;-52
2022/04/18 11:53:07;;;;;;;9.32;5.10;;;12.70;50.60;;;;;;5012222;28;20034;-51
2022/04/18 11:55:46;;;;;;;8.82;4.45;;;13.00;53.90;;;;;;5010847;28;20034;-52
2022/04/18 11:58:19;;;;;;;7.25;3.88;;;13.10;54.20;;;;;;5010369;28;20041;-52
2022/04/18 12:07:02;;;;;;;6.90;4.05;;;14.20;52.40;;;;;;5008022;28;20092;-52
2022/04/18 12:09:08;;;;;;;9.35;4.35;;;14.20;50.20;;;;;;5004641;28;20041;-52
2022/04/18 12:11:35;;;;;;;9.18;3.95;;;14.50;51.10;;;;;;5008943;28;20389;-51
2022/04/18 12:14:03;;;;;;;11.32;4.32;;;14.50;51.10;;;;;;5009444;28;20030;-51
2022/04/18 12:16:36;;;;;;;8.63;4.22;;;14.20;50.60;;;;;;5026991;28;20144;-51
2022/04/18 12:19:02;;;;;;;7.72;3.60;;;14.20;52.00;;;;;;5029683;28;20030;-53
2022/04/18 12:21:27;;;;;;;6.35;3.22;;;13.80;50.20;;;;;;5030071;28;20025;-53
2022/04/18 12:23:55;;;;;;;6.07;3.17;;;13.40;50.20;;;;;;5029650;28;20087;-52
2022/04/18 12:26:23;;;;;;;;;;;13.30;50.00;;;;;;5030454;28;20100;-52
2022/04/18 12:28:49;;;;;;;8.75;3.67;;;13.60;52.20;;;;;;5029714;28;19984;-52
2022/04/18 12:31:15;;;;;;;6.78;3.30;;;13.90;50.40;;;;;;5030045;28;20089;-53
2022/04/18 12:33:48;;;;;;;9.27;4.00;;;14.10;50.80;;;;;;5029259;28;20104;-51
2022/04/18 12:36:32;;;;;;;6.32;3.28;;;14.30;49.00;;;;;;5029747;28;20433;-50
2022/04/18 12:38:59;;;;;;;7.75;3.63;;;14.30;48.90;;;;;;5029405;28;20037;-52
2022/04/18 12:41:37;;;;;;;6.57;3.50;;;14.20;49.70;;;;;;5029265;28;20037;-53
2022/04/18 12:44:11;;;;;;;8.35;3.30;;;14.00;51.00;;;;;;5029642;28;20026;-53
2022/04/18 12:46:37;;;;;;;7.55;2.92;;;13.70;49.00;;;;;;5029060;28;20026;-51
2022/04/18 12:49:05;;;;;;;8.30;3.63;;;13.40;50.00;;;;;;5029094;28;20056;-53
2022/04/18 12:51:32;;;;;;;6.88;3.97;;;13.20;51.40;;;;;;5029414;28;20025;-50
2022/04/18 12:53:59;;;;;;;7.93;2.83;;;13.10;51.30;;;;;;5029024;28;20115;-51
2022/04/18 12:56:26;;;;;;;5.22;3.22;;;13.00;50.70;;;;;;5029515;28;20052;-51
2022/04/18 13:01:34;;;;;;;6.68;3.75;;;13.30;53.30;;;;;;5116690;22;19936;-52